La Tontouta, New Caledonia

8:47 PM NCT on August 25, 2016 (GMT +1100)
La Tontouta | | Change Station

Elev 52 ft 22.02 °S, 166.22 °E | Updated 17 minutes ago

Clear
Clear
72 °F
Feels Like 72 °F
N
0
Wind Variable Wind from North

Today
High -- | Low -- °F
--% Chance of Precip.
Yesterday
High -- | Low -- °F
Precip. -- in
Pressure 29.98 in
Visibility -9999.0 miles
Clouds
Dew Point 64 °F
Humidity 78%
Rainfall 0.00 in
Snow Depth Not available.
6:11 AM 5:43 PM
Waning Gibbous, 47% visible
METAR NWWW 250930Z AUTO 00000KT CAVOK 22/18 Q1015 NOSIG
Pressure 29.98 in
Visibility -9999.0 miles
Clouds
Dew Point 64 °F
Humidity 78%
Rainfall 0.00 in
Snow Depth Not available.
6:11 AM 5:43 PM
Waning Gibbous, 47% visible
METAR NWWW 250930Z AUTO 00000KT CAVOK 22/18 Q1015 NOSIG

10-Day Weather Forecast

No radar image for this location.
×

Almanac

Astronomy

Aug. 25, 2016 Rise Set
Actual Time
Civil Twilight
Nautical Twilight
Astronomical Twilight
Moon
Length of Visible Light
Length of Day
Tomorrow will be .
, % of the Moon is Illuminated

Today's Extremes

Country Highs Country Lows

Community

WunderPhotos

Upload Photos

1,934,818 photos uploaded!

WunderBlog® & News

Nearby

Air Quality

  Air Quality AQ Index Pollutant
Not available.

Snow Depth

Station Depth Elevation

Earthquake Activity

City Distance Mag. Time & Date
Minimum magnitude displayed is 2.5.

Coastal Water Temperatures

Place Temperature

Stations

Nearby Weather Stations

Station Location Temp. Windchill Dew Point Humidity Wind Precip. Elev Updated Type